Carcassonne Airport

LFMK · Aude, Occitanie, 法国

罗盘
风向 的 风向 300° Carcassonne Airport 10/28
风: 4 kt, 2 beaufort

4 kt

2 kt
改变
0 6.000 12.000 18.000 24.000 30.000
BKN 4.600 ft
BKN 20.000 ft
BKN 24.000 ft
METAR LFMK 022300Z AUTO 30004KT 8000 BKN046 BKN200 BKN240 03/03 Q1012

METAR Carcassonne Airport - LFMK/CCF

Carcassonne Airport是,法国中的中型机场。 该机场有2条跑道: 10/28 和 9/27. 该领域的国际民航组织标志是LFMK 它的国际航空运输协会代码是CCF.

这份报告是针对2022年12月3日 00:00, 当地时间在Carcassonne Airport进行的。

机场观察

风向为300°,速度为4 kt。

可见度为8 km。

有碎云在4.600 ft的高度, 碎云在20.000 ft的高度 和 碎云在24.000 ft的高度。 破损或更高的上限为4.600 ft。

温度为3 °C,阵风为-1 °C。 露点为3 °C,相对湿度为100%。 海平面上的气压为1012 hPa (QNH)。

白天

今天,太阳从08:03升起,在17:16降落。 这适用于Carcassonne Airport,世界夏令时可能有所不同。 当地时间与世界标准时间之间的时差为+1 小时。 当前,没有夏令时有效。

公司介绍

在这个机场,你可以找到飞行俱乐部。 本场上唯一已知的公司是Aéroclub de Pilotes Audois。

体会

到Vliegles.nl去找飞行课程,跳伞和其他飞行体验。 浏览页面,了解Carcassonne Airport附近所有可用的活动。 你也可以使用搜索功能来寻找你所在地附近的特定飞行课程、跳伞或其他飞行体验。

跑道

Id 标题 侧风 逆风 侧风 %
10/28 097°-277° 2 kt 4 kt 39 %
9/27 097°-277° 2 kt 4 kt 39 %

逆风成分最大的方向会被突出显示,并用于横风计算。 这并不一定意味着这个方向在使用。

乌云

4.600 ft BKN 碎云
20.000 ft BKN 碎云
24.000 ft BKN 碎云

温度 & 天气

温度 3 °C
露点 3 °C
相对湿度 100%
风寒 -1 °C
Kp-index 2 (0-9)

白天

日出
08:03 (7:58)
中午
12:40
日落
17:16

小工具

你想在你的网站上有一个关于Carcassonne Airport的当前航空天气(METAR)的小部件吗?

显示HTML代码

我们和第三方通过cookies跟踪您在我们网站上的互联网行为。如果你继续,我们认为你同意我们的饼干政策